createdAt,value
2022-08-03T00:00:24.317Z,11.36
2022-08-03T00:01:22.647Z,11.40
2022-08-03T00:02:22.355Z,11.43
2022-08-03T00:03:22.811Z,11.46
2022-08-03T00:04:22.360Z,11.44
2022-08-03T00:05:22.420Z,11.46
2022-08-03T00:06:22.367Z,11.44
2022-08-03T00:07:22.287Z,11.43
2022-08-03T00:08:22.465Z,11.38
2022-08-03T00:09:22.305Z,11.31
2022-08-03T00:10:22.428Z,11.24
2022-08-03T00:11:22.393Z,11.11
2022-08-03T00:12:22.284Z,10.94
2022-08-03T00:13:22.357Z,10.79
2022-08-03T00:14:22.416Z,10.71
2022-08-03T00:15:22.342Z,10.72
2022-08-03T00:16:22.385Z,10.73
2022-08-03T00:17:22.307Z,10.70
2022-08-03T00:18:22.732Z,10.67
2022-08-03T00:19:22.321Z,10.71
2022-08-03T00:20:22.626Z,10.77
2022-08-03T00:21:22.351Z,10.83
2022-08-03T00:22:22.321Z,10.89
2022-08-03T00:23:22.352Z,10.95
2022-08-03T00:25:22.368Z,10.97
2022-08-03T00:26:22.885Z,11.00
2022-08-03T00:27:22.293Z,11.02
2022-08-03T00:28:22.381Z,11.05
2022-08-03T00:29:22.296Z,11.06
2022-08-03T00:30:22.477Z,11.07
2022-08-03T00:33:22.754Z,11.08
2022-08-03T00:34:32.644Z,11.09
2022-08-03T00:35:37.069Z,11.11
2022-08-03T00:36:22.419Z,11.15
2022-08-03T00:37:22.323Z,11.18
2022-08-03T00:38:22.327Z,11.22
2022-08-03T00:39:22.258Z,11.29
2022-08-03T00:40:22.755Z,11.35
2022-08-03T00:41:22.476Z,11.40
2022-08-03T00:42:22.313Z,11.42
2022-08-03T00:43:27.828Z,11.45
2022-08-03T00:45:25.154Z,11.40
2022-08-03T00:46:22.685Z,11.34
2022-08-03T00:47:22.601Z,11.29
2022-08-03T00:48:33.198Z,11.21
2022-08-03T00:49:22.945Z,11.15
2022-08-03T00:50:24.429Z,11.06
2022-08-03T00:51:23.661Z,10.92
2022-08-03T00:52:22.498Z,10.78
2022-08-03T00:53:22.614Z,10.62
2022-08-03T00:54:22.558Z,10.60
2022-08-03T00:55:23.268Z,10.61
2022-08-03T00:56:22.273Z,10.59
2022-08-03T00:57:22.439Z,10.55
2022-08-03T00:58:22.524Z,10.57
2022-08-03T01:01:22.439Z,10.56
2022-08-03T01:02:22.355Z,10.58
2022-08-03T01:03:22.352Z,10.55
2022-08-03T01:04:22.311Z,10.58
2022-08-03T01:05:23.159Z,10.61
2022-08-03T01:07:27.179Z,10.64
2022-08-03T01:08:31.663Z,10.68
2022-08-03T01:09:30.818Z,10.71
2022-08-03T01:10:26.195Z,10.75
2022-08-03T01:11:36.150Z,10.80
2022-08-03T01:12:31.301Z,10.84
2022-08-03T01:14:01.734Z,10.90
2022-08-03T01:14:31.047Z,10.96
2022-08-03T01:15:30.743Z,11.03
2022-08-03T01:16:36.881Z,11.08
2022-08-03T01:17:32.049Z,11.12
2022-08-03T01:18:26.556Z,11.16
2022-08-03T01:19:32.784Z,11.20
2022-08-03T01:20:24.405Z,11.24
2022-08-03T01:21:29.531Z,11.28
2022-08-03T01:22:39.003Z,11.35
2022-08-03T01:23:32.010Z,11.45
2022-08-03T01:24:40.906Z,11.54
2022-08-03T01:25:33.588Z,11.60
2022-08-03T01:27:33.795Z,11.59
2022-08-03T01:28:40.444Z,11.58
2022-08-03T01:29:40.412Z,11.57
2022-08-03T01:30:26.379Z,11.62
2022-08-03T01:31:29.206Z,11.68
2022-08-03T01:32:54.552Z,11.75
2022-08-03T01:33:32.559Z,11.80
2022-08-03T01:34:23.841Z,11.81
2022-08-03T01:35:28.629Z,11.80
2022-08-03T01:36:25.682Z,11.76
2022-08-03T01:37:28.374Z,11.74
2022-08-03T01:38:26.490Z,11.73
2022-08-03T01:39:23.974Z,11.74
2022-08-03T01:40:25.006Z,11.78
2022-08-03T01:41:27.439Z,11.85
2022-08-03T01:42:23.766Z,11.86
2022-08-03T01:44:27.356Z,11.85
2022-08-03T01:44:29.760Z,11.88
2022-08-03T01:45:23.315Z,11.91
2022-08-03T01:46:25.775Z,11.89
2022-08-03T01:47:24.989Z,11.83
2022-08-03T01:48:22.630Z,11.77
2022-08-03T01:49:22.771Z,11.73
2022-08-03T01:50:27.481Z,11.68
2022-08-03T01:51:23.875Z,11.62
2022-08-03T01:52:22.969Z,11.57
2022-08-03T01:53:23.788Z,11.50
2022-08-03T01:55:24.736Z,11.55
2022-08-03T01:56:25.247Z,11.64
2022-08-03T01:57:24.448Z,11.74
2022-08-03T01:58:25.238Z,11.79
2022-08-03T01:59:23.755Z,11.83
2022-08-03T02:00:23.572Z,11.79
2022-08-03T02:01:24.664Z,11.76
2022-08-03T02:02:33.706Z,11.72
2022-08-03T02:03:24.072Z,11.66
2022-08-03T02:04:24.740Z,11.58
2022-08-03T02:05:22.610Z,11.47
2022-08-03T02:07:01.491Z,11.38
2022-08-03T02:07:22.507Z,11.32
2022-08-03T02:08:24.759Z,11.27
2022-08-03T02:09:24.075Z,11.22
2022-08-03T02:10:35.613Z,11.16
2022-08-03T02:11:22.725Z,11.14
2022-08-03T02:12:26.382Z,11.08
2022-08-03T02:13:22.730Z,11.03
2022-08-03T02:14:24.178Z,10.99
2022-08-03T02:15:24.527Z,10.96
2022-08-03T02:16:24.750Z,10.94
2022-08-03T02:18:23.195Z,10.95
2022-08-03T02:19:23.819Z,10.97
2022-08-03T02:20:22.699Z,11.00
2022-08-03T02:21:56.510Z,11.06
2022-08-03T02:22:23.961Z,11.12
2022-08-03T02:23:22.285Z,11.14
2022-08-03T02:24:22.294Z,11.13
2022-08-03T02:25:22.458Z,11.12
2022-08-03T02:26:24.886Z,11.07
2022-08-03T02:27:26.274Z,11.03
2022-08-03T02:28:27.186Z,10.96
2022-08-03T02:29:40.379Z,10.95
2022-08-03T02:30:24.261Z,10.96
2022-08-03T02:31:27.641Z,10.97
2022-08-03T02:33:29.018Z,10.99
2022-08-03T02:34:27.441Z,11.02
2022-08-03T02:36:26.661Z,11.04
2022-08-03T02:38:28.795Z,11.03
2022-08-03T02:39:25.520Z,10.99
2022-08-03T02:40:24.766Z,10.97
2022-08-03T02:42:24.479Z,10.99
2022-08-03T02:43:24.683Z,11.01
2022-08-03T02:44:26.825Z,11.06
2022-08-03T02:45:24.887Z,11.10
2022-08-03T02:46:26.242Z,11.14
2022-08-03T02:47:23.065Z,11.16
2022-08-03T02:48:27.653Z,11.20
2022-08-03T02:49:40.899Z,11.25
2022-08-03T02:50:24.286Z,11.29
2022-08-03T02:51:23.124Z,11.32
2022-08-03T02:52:24.688Z,11.33
2022-08-03T02:53:23.019Z,11.35
2022-08-03T02:54:24.961Z,11.36
2022-08-03T02:55:23.260Z,11.35
2022-08-03T02:56:24.915Z,11.32
2022-08-03T02:57:23.961Z,11.30
2022-08-03T02:58:24.135Z,11.27
2022-08-03T03:00:27.814Z,11.29
2022-08-03T03:01:23.826Z,11.31
2022-08-03T03:02:22.702Z,11.34
2022-08-03T03:03:22.927Z,11.38
2022-08-03T03:04:24.983Z,11.43
2022-08-03T03:05:53.402Z,11.42
2022-08-03T03:06:23.215Z,11.44
2022-08-03T03:07:22.334Z,11.45
2022-08-03T03:08:26.789Z,11.46
2022-08-03T03:09:22.964Z,11.47
2022-08-03T03:10:23.395Z,11.50
2022-08-03T03:11:23.623Z,11.51
2022-08-03T03:12:23.158Z,11.52
2022-08-03T03:13:22.896Z,11.51
2022-08-03T03:14:33.706Z,11.49
2022-08-03T03:15:23.231Z,11.46
2022-08-03T03:16:23.100Z,11.44
2022-08-03T03:17:23.193Z,11.38
2022-08-03T03:18:23.203Z,11.31
2022-08-03T03:19:22.878Z,11.23
2022-08-03T03:20:29.135Z,11.21
2022-08-03T03:21:24.001Z,11.19
2022-08-03T03:23:23.927Z,11.18
2022-08-03T03:24:22.484Z,11.17
2022-08-03T03:25:23.127Z,11.14
2022-08-03T03:26:22.294Z,11.13
2022-08-03T03:27:22.886Z,11.11
2022-08-03T03:28:22.863Z,11.08
2022-08-03T03:29:22.672Z,11.05
2022-08-03T03:30:22.326Z,11.02
2022-08-03T03:31:22.763Z,11.01
2022-08-03T03:32:22.553Z,10.98
2022-08-03T03:33:23.136Z,10.96
2022-08-03T03:34:23.600Z,10.94
2022-08-03T03:35:22.616Z,10.92
2022-08-03T03:36:22.233Z,10.89
2022-08-03T03:37:22.185Z,10.86
2022-08-03T03:38:22.296Z,10.85
2022-08-03T03:39:22.280Z,10.83
2022-08-03T03:40:22.841Z,10.80
2022-08-03T03:41:22.278Z,10.79
2022-08-03T03:42:22.864Z,10.78
2022-08-03T03:44:22.337Z,10.77
2022-08-03T03:45:24.054Z,10.74
2022-08-03T03:46:22.261Z,10.71
2022-08-03T03:47:32.422Z,10.68
2022-08-03T03:48:22.399Z,10.64
2022-08-03T03:49:22.563Z,10.60
2022-08-03T03:50:24.495Z,10.55
2022-08-03T03:51:22.263Z,10.51
2022-08-03T03:52:22.149Z,10.48
2022-08-03T03:53:22.181Z,10.45
2022-08-03T03:54:25.551Z,10.42
2022-08-03T03:55:22.168Z,10.39
2022-08-03T03:56:22.272Z,10.35
2022-08-03T03:58:22.376Z,10.34
2022-08-03T04:00:22.321Z,10.35
2022-08-03T04:02:22.423Z,10.34
2022-08-03T04:03:22.212Z,10.35
2022-08-03T04:04:31.513Z,10.34
2022-08-03T04:05:31.582Z,10.33
2022-08-03T04:07:32.766Z,10.32
2022-08-03T04:08:32.230Z,10.29
2022-08-03T04:09:31.587Z,10.28
2022-08-03T04:11:30.242Z,10.26
2022-08-03T04:12:26.068Z,10.27
2022-08-03T04:13:23.638Z,10.29
2022-08-03T04:14:25.796Z,10.30
2022-08-03T04:15:24.635Z,10.31
2022-08-03T04:16:25.851Z,10.32
2022-08-03T04:17:24.432Z,10.30
2022-08-03T04:18:22.878Z,10.28
2022-08-03T04:19:31.415Z,10.25
2022-08-03T04:20:23.501Z,10.24
2022-08-03T04:21:23.657Z,10.22
2022-08-03T04:22:30.927Z,10.19
2022-08-03T04:23:25.911Z,10.17
2022-08-03T04:30:23.722Z,10.16
2022-08-03T04:33:23.593Z,10.15
2022-08-03T04:35:24.047Z,10.14
2022-08-03T04:36:25.613Z,10.13
2022-08-03T04:37:33.739Z,10.12
2022-08-03T04:38:24.295Z,10.11
2022-08-03T04:40:32.816Z,10.10
2022-08-03T04:44:28.451Z,10.11
2022-08-03T04:46:26.298Z,10.12
2022-08-03T04:49:24.101Z,10.14
2022-08-03T04:52:22.562Z,10.12
2022-08-03T04:53:22.643Z,10.11
2022-08-03T04:54:22.110Z,10.09
2022-08-03T04:55:29.015Z,10.08
2022-08-03T04:56:22.106Z,10.06
2022-08-03T04:57:23.591Z,10.04
2022-08-03T04:58:22.133Z,10.02
2022-08-03T04:59:22.138Z,9.99
2022-08-03T05:00:22.611Z,9.97
2022-08-03T05:01:23.122Z,9.95
2022-08-03T05:02:22.585Z,9.93
2022-08-03T05:04:23.180Z,9.92
2022-08-03T05:05:22.725Z,9.90
2022-08-03T05:06:22.121Z,9.88
2022-08-03T05:07:24.799Z,9.87
2022-08-03T05:08:27.845Z,9.86
2022-08-03T05:09:26.017Z,9.85
2022-08-03T05:10:22.127Z,9.81
2022-08-03T05:11:22.140Z,9.79
2022-08-03T05:12:22.148Z,9.77
2022-08-03T05:13:22.049Z,9.74
2022-08-03T05:14:28.045Z,9.71
2022-08-03T05:15:22.183Z,9.68
2022-08-03T05:16:22.250Z,9.66
2022-08-03T05:17:22.121Z,9.64
2022-08-03T05:18:22.260Z,9.61
2022-08-03T05:19:22.083Z,9.58
2022-08-03T05:20:22.277Z,9.55
2022-08-03T05:21:22.114Z,9.52
2022-08-03T05:22:23.277Z,9.49
2022-08-03T05:23:22.104Z,9.45
2022-08-03T05:24:22.137Z,9.42
2022-08-03T05:25:27.102Z,9.38
2022-08-03T05:26:22.142Z,9.35
2022-08-03T05:27:22.129Z,9.31
2022-08-03T05:28:22.077Z,9.29
2022-08-03T05:29:22.489Z,9.26
2022-08-03T05:30:26.759Z,9.22
2022-08-03T05:31:22.059Z,9.20
2022-08-03T05:32:22.442Z,9.16
2022-08-03T05:33:22.069Z,9.14
2022-08-03T05:34:22.236Z,9.12
2022-08-03T05:36:00.685Z,9.11
2022-08-03T05:36:22.071Z,9.09
2022-08-03T05:37:22.117Z,9.06
2022-08-03T05:38:28.088Z,9.04
2022-08-03T05:39:22.073Z,9.02
2022-08-03T05:40:22.221Z,8.99
2022-08-03T05:41:36.550Z,8.98
2022-08-03T05:42:22.151Z,8.95
2022-08-03T05:43:22.757Z,8.93
2022-08-03T05:44:25.571Z,8.91
2022-08-03T05:45:25.410Z,8.90
2022-08-03T05:46:23.070Z,8.86
2022-08-03T05:47:22.130Z,8.84
2022-08-03T05:48:22.083Z,8.82
2022-08-03T05:49:22.214Z,8.80
2022-08-03T05:50:22.767Z,8.79
2022-08-03T05:51:22.159Z,8.77
2022-08-03T05:52:22.199Z,8.75
2022-08-03T05:53:22.093Z,8.73
2022-08-03T05:54:22.080Z,8.72
2022-08-03T05:55:22.044Z,8.70
2022-08-03T05:58:22.230Z,8.69
2022-08-03T05:59:36.968Z,8.70
2022-08-03T06:02:22.071Z,8.71
2022-08-03T06:03:22.188Z,8.72
2022-08-03T06:04:22.213Z,8.73
2022-08-03T06:07:22.937Z,8.72
2022-08-03T06:08:22.054Z,8.70
2022-08-03T06:10:37.320Z,8.68
2022-08-03T06:13:23.211Z,8.66
2022-08-03T06:14:22.112Z,8.64
2022-08-03T06:15:22.199Z,8.62
2022-08-03T06:16:22.114Z,8.59
2022-08-03T06:17:22.063Z,8.57
2022-08-03T06:18:22.054Z,8.53
2022-08-03T06:19:23.285Z,8.50
2022-08-03T06:20:22.403Z,8.46
2022-08-03T06:21:23.709Z,8.43
2022-08-03T06:22:22.156Z,8.41
2022-08-03T06:23:22.481Z,8.39
2022-08-03T06:24:22.115Z,8.37
2022-08-03T06:25:22.168Z,8.35
2022-08-03T06:26:22.113Z,8.34
2022-08-03T06:27:36.392Z,8.31
2022-08-03T06:28:53.119Z,8.28
2022-08-03T06:29:22.101Z,8.27
2022-08-03T06:30:22.187Z,8.24
2022-08-03T06:31:25.836Z,8.22
2022-08-03T06:32:22.931Z,8.19
2022-08-03T06:33:22.111Z,8.16
2022-08-03T06:34:32.770Z,8.13
2022-08-03T06:35:22.131Z,8.10
2022-08-03T06:36:22.072Z,8.08
2022-08-03T06:37:22.065Z,8.05
2022-08-03T06:38:22.281Z,8.02
2022-08-03T06:39:23.236Z,8.00
2022-08-03T06:40:32.310Z,7.98
2022-08-03T06:41:22.087Z,7.96
2022-08-03T06:42:22.610Z,7.94
2022-08-03T06:43:22.035Z,7.91
2022-08-03T06:44:22.114Z,7.89
2022-08-03T06:45:22.136Z,7.87
2022-08-03T06:46:22.452Z,7.86
2022-08-03T06:47:22.052Z,7.84
2022-08-03T06:48:22.052Z,7.83
2022-08-03T06:49:22.104Z,7.82
2022-08-03T06:50:26.013Z,7.81
2022-08-03T06:52:37.948Z,7.80
2022-08-03T06:53:22.012Z,7.78
2022-08-03T06:55:22.136Z,7.77
2022-08-03T06:56:22.087Z,7.75
2022-08-03T06:57:22.461Z,7.74
2022-08-03T06:58:22.043Z,7.73
2022-08-03T07:00:08.952Z,7.71
2022-08-03T07:01:22.206Z,7.69
2022-08-03T07:02:22.057Z,7.67
2022-08-03T07:03:22.308Z,7.65
2022-08-03T07:04:21.998Z,7.64
2022-08-03T07:05:23.076Z,7.62
2022-08-03T07:06:22.044Z,7.60
2022-08-03T07:07:22.039Z,7.59
2022-08-03T07:08:33.830Z,7.58
2022-08-03T07:09:22.610Z,7.56
2022-08-03T07:11:22.248Z,7.54
2022-08-03T07:12:22.063Z,7.53
2022-08-03T07:13:22.013Z,7.52
2022-08-03T07:14:22.310Z,7.51
2022-08-03T07:15:54.327Z,7.50
2022-08-03T07:16:22.023Z,7.49
2022-08-03T07:17:22.050Z,7.48
2022-08-03T07:18:27.598Z,7.47
2022-08-03T07:19:22.040Z,7.45
2022-08-03T07:20:21.977Z,7.44
2022-08-03T07:21:22.028Z,7.42
2022-08-03T07:22:25.937Z,7.40
2022-08-03T07:23:22.035Z,7.39
2022-08-03T07:25:22.384Z,7.38
2022-08-03T07:26:22.012Z,7.39
2022-08-03T07:27:22.586Z,7.38
2022-08-03T07:28:22.259Z,7.36
2022-08-03T07:29:22.136Z,7.35
2022-08-03T07:30:22.135Z,7.32
2022-08-03T07:31:22.017Z,7.29
2022-08-03T07:32:22.074Z,7.27
2022-08-03T07:33:29.265Z,7.24
2022-08-03T07:34:22.106Z,7.21
2022-08-03T07:35:32.830Z,7.18
2022-08-03T07:36:22.310Z,7.15
2022-08-03T07:37:30.783Z,7.13
2022-08-03T07:38:21.997Z,7.12
2022-08-03T07:39:30.456Z,7.09
2022-08-03T07:40:22.459Z,7.06
2022-08-03T07:41:22.405Z,7.04
2022-08-03T07:42:31.218Z,7.03
2022-08-03T07:43:22.014Z,7.01
2022-08-03T07:44:22.394Z,7.00
2022-08-03T07:45:31.535Z,6.98
2022-08-03T07:46:22.043Z,6.97
2022-08-03T07:48:21.988Z,6.96
2022-08-03T07:51:22.071Z,6.95
2022-08-03T07:54:33.617Z,6.96
2022-08-03T07:55:24.328Z,6.97
2022-08-03T07:57:22.059Z,6.98
2022-08-03T07:58:29.265Z,7.00
2022-08-03T07:59:25.137Z,7.02
2022-08-03T08:00:21.997Z,7.03
2022-08-03T08:01:22.691Z,7.06
2022-08-03T08:02:22.388Z,7.07
2022-08-03T08:03:22.337Z,7.10
2022-08-03T08:04:21.952Z,7.12
2022-08-03T08:05:22.102Z,7.14
2022-08-03T08:06:22.389Z,7.17
2022-08-03T08:07:22.268Z,7.19
2022-08-03T08:08:29.654Z,7.20
2022-08-03T08:10:22.521Z,7.22
2022-08-03T08:11:22.557Z,7.23
2022-08-03T08:12:22.338Z,7.24
2022-08-03T08:13:33.489Z,7.26
2022-08-03T08:14:22.035Z,7.28
2022-08-03T08:15:23.110Z,7.30
2022-08-03T08:16:21.947Z,7.32
2022-08-03T08:17:22.385Z,7.34
2022-08-03T08:18:22.147Z,7.36
2022-08-03T08:19:26.517Z,7.38
2022-08-03T08:20:38.072Z,7.39
2022-08-03T08:21:22.070Z,7.41
2022-08-03T08:22:29.801Z,7.44
2022-08-03T08:23:42.245Z,7.46
2022-08-03T08:24:21.924Z,7.49
2022-08-03T08:25:29.411Z,7.51
2022-08-03T08:26:26.393Z,7.53
2022-08-03T08:27:22.149Z,7.55
2022-08-03T08:28:32.883Z,7.57
2022-08-03T08:29:23.335Z,7.59
2022-08-03T08:30:24.109Z,7.61
2022-08-03T08:31:22.063Z,7.62
2022-08-03T08:32:21.935Z,7.63
2022-08-03T08:34:21.998Z,7.64
2022-08-03T08:36:22.287Z,7.66
2022-08-03T08:37:33.201Z,7.68
2022-08-03T08:38:22.440Z,7.71
2022-08-03T08:39:26.542Z,7.72
2022-08-03T08:40:23.766Z,7.75
2022-08-03T08:41:21.951Z,7.78
2022-08-03T08:42:21.962Z,7.80
2022-08-03T08:43:22.085Z,7.82
2022-08-03T08:44:37.878Z,7.84
2022-08-03T08:45:22.040Z,7.86
2022-08-03T08:46:36.435Z,7.88
2022-08-03T08:48:27.251Z,7.89
2022-08-03T08:51:24.148Z,7.90
2022-08-03T08:54:24.009Z,7.91
2022-08-03T08:56:26.181Z,7.92
2022-08-03T08:57:40.767Z,7.93
2022-08-03T08:58:24.973Z,7.94
2022-08-03T09:04:22.209Z,7.92
2022-08-03T09:05:36.244Z,7.91
2022-08-03T09:06:22.846Z,7.89
2022-08-03T09:07:22.191Z,7.88
2022-08-03T09:08:23.299Z,7.87
2022-08-03T09:10:11.013Z,7.85
2022-08-03T09:10:22.214Z,7.84
2022-08-03T09:12:00.463Z,7.83
2022-08-03T09:12:41.182Z,7.81
2022-08-03T09:13:23.393Z,7.79
2022-08-03T09:14:39.401Z,7.76
2022-08-03T09:15:25.727Z,7.74
2022-08-03T09:16:23.247Z,7.70
2022-08-03T09:17:22.360Z,7.67
2022-08-03T09:18:32.891Z,7.64
2022-08-03T09:19:21.941Z,7.60
2022-08-03T09:20:24.196Z,7.57
2022-08-03T09:21:32.099Z,7.53
2022-08-03T09:22:22.212Z,7.50
2022-08-03T09:23:51.532Z,7.48
2022-08-03T09:24:40.794Z,7.45
2022-08-03T09:25:31.948Z,7.43
2022-08-03T09:26:23.691Z,7.40
2022-08-03T09:27:26.114Z,7.37
2022-08-03T09:28:52.677Z,7.36
2022-08-03T09:29:23.170Z,7.33
2022-08-03T09:31:29.750Z,7.31
2022-08-03T09:32:23.348Z,7.29
2022-08-03T09:33:22.171Z,7.28
2022-08-03T09:34:28.629Z,7.26
2022-08-03T09:35:51.624Z,7.24
2022-08-03T09:36:42.489Z,7.23
2022-08-03T09:38:04.757Z,7.22
2022-08-03T09:38:26.125Z,7.20
2022-08-03T09:39:41.749Z,7.18
2022-08-03T09:40:39.314Z,7.16
2022-08-03T09:41:21.916Z,7.15
2022-08-03T09:43:22.748Z,7.14
2022-08-03T09:46:21.956Z,7.13
2022-08-03T09:48:23.987Z,7.14
2022-08-03T09:49:22.141Z,7.12
2022-08-03T09:52:31.254Z,7.10
2022-08-03T09:52:38.345Z,7.08
2022-08-03T09:53:22.572Z,7.07
2022-08-03T09:54:28.809Z,7.04
2022-08-03T09:56:30.565Z,7.01
2022-08-03T09:56:33.319Z,7.00
2022-08-03T09:57:23.717Z,6.98
2022-08-03T09:58:23.491Z,6.96
2022-08-03T09:59:27.728Z,6.94
2022-08-03T10:00:22.324Z,6.93
2022-08-03T10:01:31.274Z,6.91
2022-08-03T10:02:26.211Z,6.88
2022-08-03T10:03:22.264Z,6.86
2022-08-03T10:04:23.117Z,6.84
2022-08-03T10:05:34.049Z,6.82
2022-08-03T10:06:23.248Z,6.79
2022-08-03T10:07:23.897Z,6.76
2022-08-03T10:08:22.658Z,6.72
2022-08-03T10:09:21.897Z,6.70
2022-08-03T10:10:30.318Z,6.67
2022-08-03T10:11:31.456Z,6.64
2022-08-03T10:12:22.572Z,6.62
2022-08-03T10:13:25.658Z,6.60
2022-08-03T10:16:22.184Z,6.59
2022-08-03T10:16:25.499Z,6.60
2022-08-03T10:18:21.968Z,6.62
2022-08-03T10:19:21.947Z,6.64
2022-08-03T10:20:22.032Z,6.66
2022-08-03T10:21:22.853Z,6.67
2022-08-03T10:22:24.284Z,6.68
2022-08-03T10:24:28.727Z,6.69
2022-08-03T10:25:22.542Z,6.67
2022-08-03T10:27:24.735Z,6.66
2022-08-03T10:29:25.427Z,6.68
2022-08-03T10:30:26.258Z,6.69
2022-08-03T10:31:24.281Z,6.70
2022-08-03T10:32:34.542Z,6.71
2022-08-03T10:34:26.106Z,6.72
2022-08-03T10:35:23.561Z,6.73
2022-08-03T10:36:25.045Z,6.74
2022-08-03T10:37:26.186Z,6.75
2022-08-03T10:38:26.601Z,6.76
2022-08-03T10:39:24.603Z,6.75
2022-08-03T10:43:26.790Z,6.74
2022-08-03T10:44:25.057Z,6.72
2022-08-03T10:45:24.866Z,6.70
2022-08-03T10:46:22.613Z,6.68
2022-08-03T10:47:22.199Z,6.65
2022-08-03T10:48:22.908Z,6.61
2022-08-03T10:49:34.322Z,6.57
2022-08-03T10:50:25.742Z,6.53
2022-08-03T10:51:23.631Z,6.50
2022-08-03T10:52:31.802Z,6.45
2022-08-03T10:53:40.411Z,6.42
2022-08-03T10:54:49.429Z,6.38
2022-08-03T10:55:42.834Z,6.34
2022-08-03T10:56:48.047Z,6.30
2022-08-03T10:57:39.957Z,6.24
2022-08-03T10:58:53.440Z,6.19
2022-08-03T10:59:40.990Z,6.16
2022-08-03T11:00:23.538Z,6.11
2022-08-03T11:01:59.285Z,6.06
2022-08-03T11:02:21.990Z,6.01
2022-08-03T11:03:21.878Z,5.95
2022-08-03T11:04:24.431Z,5.90
2022-08-03T11:05:30.256Z,5.86
2022-08-03T11:06:24.784Z,5.82
2022-08-03T11:07:23.899Z,5.76
2022-08-03T11:08:29.469Z,5.71
2022-08-03T11:09:21.949Z,5.66
2022-08-03T11:10:32.065Z,5.62
2022-08-03T11:11:28.776Z,5.58
2022-08-03T11:12:31.509Z,5.55
2022-08-03T11:13:23.976Z,5.53
2022-08-03T11:14:23.973Z,5.52
2022-08-03T11:15:33.538Z,5.50
2022-08-03T11:16:23.567Z,5.47
2022-08-03T11:17:23.504Z,5.43
2022-08-03T11:18:22.102Z,5.40
2022-08-03T11:19:27.584Z,5.37
2022-08-03T11:20:39.992Z,5.33
2022-08-03T11:21:22.055Z,5.30
2022-08-03T11:22:22.713Z,5.26
2022-08-03T11:24:04.514Z,5.23
2022-08-03T11:24:39.637Z,5.19
2022-08-03T11:25:55.069Z,5.16
2022-08-03T11:26:22.774Z,5.13
2022-08-03T11:27:23.415Z,5.10
2022-08-03T11:28:30.672Z,5.07
2022-08-03T11:29:31.199Z,5.04
2022-08-03T11:30:27.673Z,5.02
2022-08-03T11:31:49.453Z,5.01
2022-08-03T11:32:46.582Z,4.99
2022-08-03T11:33:31.282Z,4.95
2022-08-03T11:34:21.973Z,4.92
2022-08-03T11:35:26.143Z,4.90
2022-08-03T11:36:32.500Z,4.88
2022-08-03T11:37:27.246Z,4.87
2022-08-03T11:38:24.704Z,4.86
2022-08-03T11:39:21.840Z,4.84
2022-08-03T11:40:40.039Z,4.82
2022-08-03T11:41:43.379Z,4.80
2022-08-03T11:42:30.646Z,4.79
2022-08-03T11:43:31.996Z,4.78
2022-08-03T11:44:39.936Z,4.77
2022-08-03T11:45:21.827Z,4.78
2022-08-03T11:46:29.790Z,4.77
2022-08-03T11:47:23.231Z,4.76
2022-08-03T11:48:21.887Z,4.74
2022-08-03T11:49:24.035Z,4.71
2022-08-03T11:50:22.702Z,4.67
2022-08-03T11:51:24.009Z,4.64
2022-08-03T11:52:27.102Z,4.60
2022-08-03T11:53:22.034Z,4.58
2022-08-03T11:54:22.923Z,4.54
2022-08-03T11:55:22.407Z,4.51
2022-08-03T11:56:21.963Z,4.49
2022-08-03T11:59:09.311Z,4.48
2022-08-03T11:59:16.370Z,4.49
2022-08-03T12:00:25.870Z,4.51
2022-08-03T12:01:24.303Z,4.52
2022-08-03T12:02:21.792Z,4.53
2022-08-03T12:03:23.035Z,4.54
2022-08-03T12:04:25.967Z,4.55
2022-08-03T12:05:21.945Z,4.54
2022-08-03T12:06:22.233Z,4.53
2022-08-03T12:08:02.675Z,4.52
2022-08-03T12:08:33.166Z,4.51
2022-08-03T12:09:22.546Z,4.50
2022-08-03T12:10:21.763Z,4.49
2022-08-03T12:11:21.844Z,4.48
2022-08-03T12:12:22.263Z,4.47
2022-08-03T12:14:37.326Z,4.46
2022-08-03T12:14:49.770Z,4.42
2022-08-03T12:15:30.565Z,4.40
2022-08-03T12:16:23.496Z,4.38
2022-08-03T12:17:22.159Z,4.36
2022-08-03T12:22:33.449Z,4.37
2022-08-03T12:23:21.863Z,4.38
2022-08-03T12:24:21.833Z,4.37
2022-08-03T12:25:38.623Z,4.36
2022-08-03T12:26:21.908Z,4.35
2022-08-03T12:27:27.862Z,4.34
2022-08-03T12:28:37.490Z,4.33
2022-08-03T12:29:23.244Z,4.32
2022-08-03T12:30:23.908Z,4.29
2022-08-03T12:31:22.042Z,4.26
2022-08-03T12:32:21.813Z,4.24
2022-08-03T12:33:24.978Z,4.23
2022-08-03T12:34:21.782Z,4.21
2022-08-03T12:35:25.659Z,4.18
2022-08-03T12:36:21.821Z,4.14
2022-08-03T12:37:23.670Z,4.10
2022-08-03T12:38:23.052Z,4.08
2022-08-03T12:39:25.814Z,4.05
2022-08-03T12:40:28.307Z,4.03
2022-08-03T12:41:29.553Z,4.02
2022-08-03T12:42:30.848Z,4.00
2022-08-03T12:46:22.168Z,4.01
2022-08-03T12:47:21.818Z,4.02
2022-08-03T12:51:21.770Z,4.03
2022-08-03T12:53:30.512Z,4.04
2022-08-03T12:56:23.185Z,4.03
2022-08-03T12:57:22.123Z,3.99
2022-08-03T12:58:34.543Z,3.96
2022-08-03T12:59:35.083Z,3.94
2022-08-03T13:00:28.777Z,3.93
2022-08-03T13:03:39.664Z,3.92
2022-08-03T13:07:22.905Z,3.91
2022-08-03T13:08:23.673Z,3.90
2022-08-03T13:09:21.758Z,3.89
2022-08-03T13:10:32.486Z,3.90
2022-08-03T13:12:25.089Z,3.91
2022-08-03T13:13:39.934Z,3.93
2022-08-03T13:14:23.794Z,3.96
2022-08-03T13:15:21.794Z,3.99
2022-08-03T13:16:22.316Z,4.02
2022-08-03T13:17:22.015Z,4.05
2022-08-03T13:18:21.761Z,4.08
2022-08-03T13:19:21.740Z,4.11
2022-08-03T13:20:22.523Z,4.13
2022-08-03T13:21:22.430Z,4.15
2022-08-03T13:22:25.042Z,4.18
2022-08-03T13:23:22.584Z,4.21
2022-08-03T13:24:21.867Z,4.22
2022-08-03T13:25:21.868Z,4.24
2022-08-03T13:26:21.734Z,4.27
2022-08-03T13:28:01.404Z,4.29
2022-08-03T13:28:21.823Z,4.32
2022-08-03T13:29:21.851Z,4.33
2022-08-03T13:30:29.893Z,4.35
2022-08-03T13:32:22.060Z,4.37
2022-08-03T13:33:21.786Z,4.40
2022-08-03T13:34:23.918Z,4.42
2022-08-03T13:35:21.778Z,4.45
2022-08-03T13:36:21.697Z,4.48
2022-08-03T13:37:22.012Z,4.51
2022-08-03T13:38:22.066Z,4.56
2022-08-03T13:39:21.886Z,4.58
2022-08-03T13:40:30.380Z,4.61
2022-08-03T13:41:22.315Z,4.65
2022-08-03T13:42:21.723Z,4.68
2022-08-03T13:43:22.511Z,4.71
2022-08-03T13:44:29.825Z,4.74
2022-08-03T13:45:21.771Z,4.77
2022-08-03T13:46:21.762Z,4.80
2022-08-03T13:47:22.299Z,4.83
2022-08-03T13:48:36.796Z,4.85
2022-08-03T13:49:22.434Z,4.87
2022-08-03T13:50:21.768Z,4.91
2022-08-03T13:51:22.893Z,4.93
2022-08-03T13:52:21.801Z,4.95
2022-08-03T13:53:21.763Z,4.97
2022-08-03T13:54:21.809Z,4.98
2022-08-03T13:55:21.714Z,5.00
2022-08-03T13:56:21.859Z,5.01
2022-08-03T13:58:04.605Z,5.03
2022-08-03T13:58:21.871Z,5.05
2022-08-03T13:59:22.851Z,5.07
2022-08-03T14:00:28.903Z,5.09
2022-08-03T14:01:53.466Z,5.10
2022-08-03T14:02:21.751Z,5.11
2022-08-03T14:04:25.084Z,5.12
2022-08-03T14:10:22.085Z,5.13
2022-08-03T14:12:21.693Z,5.12
2022-08-03T14:14:21.765Z,5.13
2022-08-03T14:15:22.641Z,5.14
2022-08-03T14:17:23.260Z,5.15
2022-08-03T14:18:29.012Z,5.17
2022-08-03T14:20:38.513Z,5.19
2022-08-03T14:23:21.848Z,5.20
2022-08-03T14:25:24.816Z,5.21
2022-08-03T14:32:21.970Z,5.20
2022-08-03T14:33:21.986Z,5.21
2022-08-03T14:34:21.705Z,5.20
2022-08-03T14:35:21.674Z,5.21
2022-08-03T14:36:27.225Z,5.23
2022-08-03T14:37:27.905Z,5.24
2022-08-03T14:38:22.196Z,5.27
2022-08-03T14:39:23.697Z,5.31
2022-08-03T14:40:27.993Z,5.35
2022-08-03T14:41:21.710Z,5.38
2022-08-03T14:42:21.734Z,5.40
2022-08-03T14:43:25.683Z,5.42
2022-08-03T14:47:22.041Z,5.41
2022-08-03T14:50:38.414Z,5.40
2022-08-03T14:55:22.055Z,5.41
2022-08-03T14:59:28.762Z,5.40
2022-08-03T15:00:21.924Z,5.39
2022-08-03T15:02:02.999Z,5.38
2022-08-03T15:07:22.366Z,5.39
2022-08-03T15:08:23.018Z,5.42
2022-08-03T15:09:23.849Z,5.45
2022-08-03T15:10:21.762Z,5.48
2022-08-03T15:11:21.708Z,5.50
2022-08-03T15:12:21.665Z,5.53
2022-08-03T15:13:27.843Z,5.57
2022-08-03T15:14:28.324Z,5.62
2022-08-03T15:15:22.004Z,5.64
2022-08-03T15:16:21.660Z,5.67
2022-08-03T15:17:22.123Z,5.69
2022-08-03T15:18:21.747Z,5.71
2022-08-03T15:20:02.416Z,5.73
2022-08-03T15:20:33.775Z,5.75
2022-08-03T15:21:46.131Z,5.78
2022-08-03T15:22:25.213Z,5.83
2022-08-03T15:23:21.712Z,5.87
2022-08-03T15:24:21.898Z,5.92
2022-08-03T15:26:03.829Z,5.99
2022-08-03T15:26:33.946Z,6.04
2022-08-03T15:27:22.012Z,6.09
2022-08-03T15:28:21.929Z,6.13
2022-08-03T15:30:07.176Z,6.17
2022-08-03T15:30:21.881Z,6.19
2022-08-03T15:31:23.262Z,6.21
2022-08-03T15:32:22.663Z,6.23
2022-08-03T15:33:21.648Z,6.24
2022-08-03T15:34:21.624Z,6.25
2022-08-03T15:35:21.695Z,6.26
2022-08-03T15:38:26.356Z,6.27